sensor_id;sensor_type;location;lat;lon;timestamp;P1;durP1;ratioP1;P2;durP2;ratioP2
13832;SDS011;6987;19.472;-99.276;2022-12-07T00:01:56;7.25;;;5.00;;
13832;SDS011;6987;19.472;-99.276;2022-12-07T00:04:25;10.32;;;5.43;;
13832;SDS011;6987;19.472;-99.276;2022-12-07T00:06:54;9.32;;;5.20;;
13832;SDS011;6987;19.472;-99.276;2022-12-07T00:09:23;10.02;;;5.15;;
13832;SDS011;6987;19.472;-99.276;2022-12-07T00:11:52;9.55;;;5.53;;
13832;SDS011;6987;19.472;-99.276;2022-12-07T00:14:21;14.35;;;5.88;;
13832;SDS011;6987;19.472;-99.276;2022-12-07T00:16:51;19.75;;;9.05;;
13832;SDS011;6987;19.472;-99.276;2022-12-07T00:19:22;15.13;;;7.43;;
13832;SDS011;6987;19.472;-99.276;2022-12-07T00:21:51;23.92;;;8.07;;
13832;SDS011;6987;19.472;-99.276;2022-12-07T00:24:20;26.98;;;7.07;;
13832;SDS011;6987;19.472;-99.276;2022-12-07T00:26:49;11.73;;;5.00;;
13832;SDS011;6987;19.472;-99.276;2022-12-07T00:29:19;9.40;;;6.20;;
13832;SDS011;6987;19.472;-99.276;2022-12-07T00:31:49;18.92;;;8.63;;
13832;SDS011;6987;19.472;-99.276;2022-12-07T00:34:18;20.17;;;8.15;;
13832;SDS011;6987;19.472;-99.276;2022-12-07T00:36:49;13.48;;;8.73;;
13832;SDS011;6987;19.472;-99.276;2022-12-07T00:39:19;17.15;;;9.52;;
13832;SDS011;6987;19.472;-99.276;2022-12-07T00:41:49;19.55;;;9.82;;
13832;SDS011;6987;19.472;-99.276;2022-12-07T00:44:17;29.05;;;14.38;;
13832;SDS011;6987;19.472;-99.276;2022-12-07T00:46:47;27.30;;;14.43;;
13832;SDS011;6987;19.472;-99.276;2022-12-07T00:49:16;24.90;;;11.07;;
13832;SDS011;6987;19.472;-99.276;2022-12-07T00:51:45;21.95;;;11.98;;
13832;SDS011;6987;19.472;-99.276;2022-12-07T00:54:18;33.40;;;11.77;;
13832;SDS011;6987;19.472;-99.276;2022-12-07T00:56:47;19.13;;;9.40;;
13832;SDS011;6987;19.472;-99.276;2022-12-07T00:59:17;14.55;;;9.45;;
13832;SDS011;6987;19.472;-99.276;2022-12-07T01:01:46;24.00;;;12.18;;
13832;SDS011;6987;19.472;-99.276;2022-12-07T01:04:18;18.42;;;9.93;;
13832;SDS011;6987;19.472;-99.276;2022-12-07T01:06:48;15.55;;;10.52;;
13832;SDS011;6987;19.472;-99.276;2022-12-07T01:09:20;24.85;;;12.77;;
13832;SDS011;6987;19.472;-99.276;2022-12-07T01:12:01;28.48;;;14.00;;
13832;SDS011;6987;19.472;-99.276;2022-12-07T01:14:31;33.40;;;13.63;;
13832;SDS011;6987;19.472;-99.276;2022-12-07T01:17:00;37.55;;;13.73;;
13832;SDS011;6987;19.472;-99.276;2022-12-07T01:19:29;24.13;;;13.23;;
13832;SDS011;6987;19.472;-99.276;2022-12-07T01:21:58;20.23;;;12.30;;
13832;SDS011;6987;19.472;-99.276;2022-12-07T01:24:28;28.20;;;13.50;;
13832;SDS011;6987;19.472;-99.276;2022-12-07T01:26:57;31.95;;;13.65;;
13832;SDS011;6987;19.472;-99.276;2022-12-07T01:29:26;44.83;;;14.27;;
13832;SDS011;6987;19.472;-99.276;2022-12-07T01:31:55;19.23;;;12.18;;
13832;SDS011;6987;19.472;-99.276;2022-12-07T01:34:24;25.63;;;13.02;;
13832;SDS011;6987;19.472;-99.276;2022-12-07T01:36:53;26.23;;;13.70;;
13832;SDS011;6987;19.472;-99.276;2022-12-07T01:39:22;21.20;;;11.13;;
13832;SDS011;6987;19.472;-99.276;2022-12-07T01:41:54;18.88;;;11.23;;
13832;SDS011;6987;19.472;-99.276;2022-12-07T01:44:23;20.33;;;11.05;;
13832;SDS011;6987;19.472;-99.276;2022-12-07T01:46:53;20.08;;;10.80;;
13832;SDS011;6987;19.472;-99.276;2022-12-07T01:49:24;22.90;;;11.35;;
13832;SDS011;6987;19.472;-99.276;2022-12-07T01:51:56;20.50;;;10.98;;
13832;SDS011;6987;19.472;-99.276;2022-12-07T01:54:27;23.23;;;10.98;;
13832;SDS011;6987;19.472;-99.276;2022-12-07T01:56:57;24.48;;;10.93;;
13832;SDS011;6987;19.472;-99.276;2022-12-07T01:59:26;21.67;;;11.23;;
13832;SDS011;6987;19.472;-99.276;2022-12-07T02:01:57;27.38;;;11.48;;
13832;SDS011;6987;19.472;-99.276;2022-12-07T02:04:27;27.48;;;11.48;;
13832;SDS011;6987;19.472;-99.276;2022-12-07T02:06:57;23.20;;;10.25;;
13832;SDS011;6987;19.472;-99.276;2022-12-07T02:09:26;20.42;;;10.90;;
13832;SDS011;6987;19.472;-99.276;2022-12-07T02:11:57;25.42;;;9.38;;
13832;SDS011;6987;19.472;-99.276;2022-12-07T02:14:26;19.90;;;10.15;;
13832;SDS011;6987;19.472;-99.276;2022-12-07T02:16:59;19.33;;;10.60;;
13832;SDS011;6987;19.472;-99.276;2022-12-07T02:19:59;15.65;;;9.23;;
13832;SDS011;6987;19.472;-99.276;2022-12-07T02:22:46;21.40;;;9.80;;
13832;SDS011;6987;19.472;-99.276;2022-12-07T02:25:22;23.38;;;9.98;;
13832;SDS011;6987;19.472;-99.276;2022-12-07T02:27:55;21.02;;;9.88;;
13832;SDS011;6987;19.472;-99.276;2022-12-07T02:30:27;16.27;;;9.43;;
13832;SDS011;6987;19.472;-99.276;2022-12-07T02:33:00;23.60;;;9.50;;
13832;SDS011;6987;19.472;-99.276;2022-12-07T02:35:32;23.15;;;10.27;;
13832;SDS011;6987;19.472;-99.276;2022-12-07T02:38:02;16.95;;;9.60;;
13832;SDS011;6987;19.472;-99.276;2022-12-07T02:40:33;16.80;;;9.55;;
13832;SDS011;6987;19.472;-99.276;2022-12-07T02:43:04;16.05;;;9.63;;
13832;SDS011;6987;19.472;-99.276;2022-12-07T02:45:38;17.65;;;9.15;;
13832;SDS011;6987;19.472;-99.276;2022-12-07T02:48:08;14.95;;;8.13;;
13832;SDS011;6987;19.472;-99.276;2022-12-07T02:50:38;16.65;;;8.45;;
13832;SDS011;6987;19.472;-99.276;2022-12-07T02:55:50;20.88;;;8.38;;
13832;SDS011;6987;19.472;-99.276;2022-12-07T02:58:22;15.18;;;8.48;;
13832;SDS011;6987;19.472;-99.276;2022-12-07T03:00:58;11.57;;;8.20;;
13832;SDS011;6987;19.472;-99.276;2022-12-07T03:03:30;10.23;;;7.68;;
13832;SDS011;6987;19.472;-99.276;2022-12-07T03:06:01;13.73;;;8.20;;
13832;SDS011;6987;19.472;-99.276;2022-12-07T03:08:39;12.52;;;7.68;;
13832;SDS011;6987;19.472;-99.276;2022-12-07T03:11:12;16.30;;;7.88;;
13832;SDS011;6987;19.472;-99.276;2022-12-07T03:13:45;13.98;;;6.75;;
13832;SDS011;6987;19.472;-99.276;2022-12-07T03:16:18;13.02;;;7.10;;
13832;SDS011;6987;19.472;-99.276;2022-12-07T03:18:49;11.40;;;6.80;;
13832;SDS011;6987;19.472;-99.276;2022-12-07T03:21:20;9.52;;;6.78;;
13832;SDS011;6987;19.472;-99.276;2022-12-07T03:23:51;15.68;;;6.80;;
13832;SDS011;6987;19.472;-99.276;2022-12-07T03:26:21;13.13;;;7.00;;
13832;SDS011;6987;19.472;-99.276;2022-12-07T03:28:52;11.13;;;7.03;;
13832;SDS011;6987;19.472;-99.276;2022-12-07T03:31:23;17.40;;;7.10;;
13832;SDS011;6987;19.472;-99.276;2022-12-07T03:33:55;17.63;;;7.40;;
13832;SDS011;6987;19.472;-99.276;2022-12-07T03:36:29;13.98;;;6.60;;
13832;SDS011;6987;19.472;-99.276;2022-12-07T03:39:00;9.27;;;6.13;;
13832;SDS011;6987;19.472;-99.276;2022-12-07T03:41:32;11.13;;;6.28;;
13832;SDS011;6987;19.472;-99.276;2022-12-07T03:44:02;8.32;;;6.15;;
13832;SDS011;6987;19.472;-99.276;2022-12-07T03:46:34;9.07;;;5.90;;
13832;SDS011;6987;19.472;-99.276;2022-12-07T03:49:07;9.02;;;6.32;;
13832;SDS011;6987;19.472;-99.276;2022-12-07T03:51:39;9.18;;;6.60;;
13832;SDS011;6987;19.472;-99.276;2022-12-07T03:54:10;7.30;;;6.15;;
13832;SDS011;6987;19.472;-99.276;2022-12-07T03:56:41;9.38;;;6.25;;
13832;SDS011;6987;19.472;-99.276;2022-12-07T03:59:12;6.50;;;4.70;;
13832;SDS011;6987;19.472;-99.276;2022-12-07T04:01:43;6.00;;;4.90;;
13832;SDS011;6987;19.472;-99.276;2022-12-07T04:04:12;11.35;;;5.55;;
13832;SDS011;6987;19.472;-99.276;2022-12-07T04:06:42;8.63;;;4.95;;
13832;SDS011;6987;19.472;-99.276;2022-12-07T04:09:11;7.28;;;5.07;;
13832;SDS011;6987;19.472;-99.276;2022-12-07T04:11:40;8.43;;;5.93;;
13832;SDS011;6987;19.472;-99.276;2022-12-07T04:14:09;7.05;;;5.65;;
13832;SDS011;6987;19.472;-99.276;2022-12-07T04:16:54;8.48;;;5.55;;
13832;SDS011;6987;19.472;-99.276;2022-12-07T04:19:24;10.05;;;6.20;;
13832;SDS011;6987;19.472;-99.276;2022-12-07T04:21:55;7.80;;;4.90;;
13832;SDS011;6987;19.472;-99.276;2022-12-07T04:24:24;8.40;;;5.18;;
13832;SDS011;6987;19.472;-99.276;2022-12-07T04:26:53;7.32;;;5.22;;
13832;SDS011;6987;19.472;-99.276;2022-12-07T04:29:22;10.15;;;5.55;;
13832;SDS011;6987;19.472;-99.276;2022-12-07T04:31:51;7.65;;;5.68;;
13832;SDS011;6987;19.472;-99.276;2022-12-07T04:34:22;9.50;;;4.70;;
13832;SDS011;6987;19.472;-99.276;2022-12-07T04:36:51;7.53;;;5.18;;
13832;SDS011;6987;19.472;-99.276;2022-12-07T04:39:20;7.15;;;4.72;;
13832;SDS011;6987;19.472;-99.276;2022-12-07T04:41:50;11.15;;;5.60;;
13832;SDS011;6987;19.472;-99.276;2022-12-07T04:44:19;8.18;;;5.10;;
13832;SDS011;6987;19.472;-99.276;2022-12-07T04:46:49;8.00;;;5.00;;
13832;SDS011;6987;19.472;-99.276;2022-12-07T04:49:18;6.78;;;4.43;;
13832;SDS011;6987;19.472;-99.276;2022-12-07T04:51:48;13.05;;;5.07;;
13832;SDS011;6987;19.472;-99.276;2022-12-07T04:54:18;8.10;;;4.97;;
13832;SDS011;6987;19.472;-99.276;2022-12-07T04:56:47;4.95;;;4.43;;
13832;SDS011;6987;19.472;-99.276;2022-12-07T04:59:16;9.95;;;5.13;;
13832;SDS011;6987;19.472;-99.276;2022-12-07T05:01:45;6.93;;;4.28;;
13832;SDS011;6987;19.472;-99.276;2022-12-07T05:04:14;8.80;;;4.97;;
13832;SDS011;6987;19.472;-99.276;2022-12-07T05:06:43;6.90;;;5.28;;
13832;SDS011;6987;19.472;-99.276;2022-12-07T05:09:14;5.43;;;4.85;;
13832;SDS011;6987;19.472;-99.276;2022-12-07T05:11:43;5.75;;;5.25;;
13832;SDS011;6987;19.472;-99.276;2022-12-07T05:14:13;8.43;;;4.90;;
13832;SDS011;6987;19.472;-99.276;2022-12-07T05:16:43;12.35;;;5.15;;
13832;SDS011;6987;19.472;-99.276;2022-12-07T05:19:12;9.93;;;5.68;;
13832;SDS011;6987;19.472;-99.276;2022-12-07T05:21:41;5.28;;;4.78;;
13832;SDS011;6987;19.472;-99.276;2022-12-07T05:24:11;7.18;;;5.05;;
13832;SDS011;6987;19.472;-99.276;2022-12-07T05:26:43;6.18;;;5.10;;
13832;SDS011;6987;19.472;-99.276;2022-12-07T05:29:12;7.75;;;5.05;;
13832;SDS011;6987;19.472;-99.276;2022-12-07T05:31:42;6.10;;;4.78;;
13832;SDS011;6987;19.472;-99.276;2022-12-07T05:34:11;8.98;;;5.47;;
13832;SDS011;6987;19.472;-99.276;2022-12-07T05:36:40;8.15;;;5.25;;
13832;SDS011;6987;19.472;-99.276;2022-12-07T05:39:09;8.45;;;5.43;;
13832;SDS011;6987;19.472;-99.276;2022-12-07T05:41:38;8.95;;;5.03;;
13832;SDS011;6987;19.472;-99.276;2022-12-07T05:44:25;16.27;;;5.35;;
13832;SDS011;6987;19.472;-99.276;2022-12-07T05:46:55;10.85;;;5.03;;
13832;SDS011;6987;19.472;-99.276;2022-12-07T05:49:24;10.15;;;5.65;;
13832;SDS011;6987;19.472;-99.276;2022-12-07T05:51:53;7.53;;;5.15;;
13832;SDS011;6987;19.472;-99.276;2022-12-07T05:54:22;12.52;;;5.45;;
13832;SDS011;6987;19.472;-99.276;2022-12-07T05:56:51;10.75;;;5.85;;
13832;SDS011;6987;19.472;-99.276;2022-12-07T05:59:20;10.13;;;5.55;;
13832;SDS011;6987;19.472;-99.276;2022-12-07T06:01:54;11.02;;;5.95;;
13832;SDS011;6987;19.472;-99.276;2022-12-07T06:04:24;9.20;;;5.97;;
13832;SDS011;6987;19.472;-99.276;2022-12-07T06:06:54;5.13;;;4.63;;
13832;SDS011;6987;19.472;-99.276;2022-12-07T06:09:24;6.68;;;4.28;;
13832;SDS011;6987;19.472;-99.276;2022-12-07T06:11:53;6.10;;;4.63;;
13832;SDS011;6987;19.472;-99.276;2022-12-07T06:14:39;6.65;;;4.93;;
13832;SDS011;6987;19.472;-99.276;2022-12-07T06:17:10;5.43;;;4.93;;
13832;SDS011;6987;19.472;-99.276;2022-12-07T06:19:39;5.60;;;5.10;;
13832;SDS011;6987;19.472;-99.276;2022-12-07T06:22:08;5.35;;;4.85;;
13832;SDS011;6987;19.472;-99.276;2022-12-07T06:24:37;6.22;;;5.18;;
13832;SDS011;6987;19.472;-99.276;2022-12-07T06:27:06;5.40;;;4.85;;
13832;SDS011;6987;19.472;-99.276;2022-12-07T06:29:35;5.15;;;3.92;;
13832;SDS011;6987;19.472;-99.276;2022-12-07T06:32:04;5.20;;;4.70;;
13832;SDS011;6987;19.472;-99.276;2022-12-07T06:34:36;5.22;;;4.20;;
13832;SDS011;6987;19.472;-99.276;2022-12-07T06:37:05;5.15;;;4.40;;
13832;SDS011;6987;19.472;-99.276;2022-12-07T06:39:34;5.40;;;4.50;;
13832;SDS011;6987;19.472;-99.276;2022-12-07T06:42:04;9.40;;;4.50;;
13832;SDS011;6987;19.472;-99.276;2022-12-07T06:44:33;5.72;;;4.68;;
13832;SDS011;6987;19.472;-99.276;2022-12-07T06:47:02;5.30;;;4.20;;
13832;SDS011;6987;19.472;-99.276;2022-12-07T06:49:31;4.95;;;4.55;;
13832;SDS011;6987;19.472;-99.276;2022-12-07T06:52:02;7.53;;;4.85;;
13832;SDS011;6987;19.472;-99.276;2022-12-07T06:54:31;5.10;;;4.60;;
13832;SDS011;6987;19.472;-99.276;2022-12-07T06:57:00;6.22;;;4.55;;
13832;SDS011;6987;19.472;-99.276;2022-12-07T06:59:29;4.78;;;4.47;;
13832;SDS011;6987;19.472;-99.276;2022-12-07T07:01:59;5.40;;;4.18;;
13832;SDS011;6987;19.472;-99.276;2022-12-07T07:04:28;5.05;;;4.57;;
13832;SDS011;6987;19.472;-99.276;2022-12-07T07:06:57;6.50;;;4.70;;
13832;SDS011;6987;19.472;-99.276;2022-12-07T07:09:28;4.60;;;4.18;;
13832;SDS011;6987;19.472;-99.276;2022-12-07T07:11:56;5.43;;;4.90;;
13832;SDS011;6987;19.472;-99.276;2022-12-07T07:14:26;4.40;;;4.00;;
13832;SDS011;6987;19.472;-99.276;2022-12-07T07:16:55;4.80;;;3.90;;
13832;SDS011;6987;19.472;-99.276;2022-12-07T07:19:24;9.00;;;4.40;;
13832;SDS011;6987;19.472;-99.276;2022-12-07T07:21:53;5.63;;;4.18;;
13832;SDS011;6987;19.472;-99.276;2022-12-07T07:24:22;4.13;;;3.83;;
13832;SDS011;6987;19.472;-99.276;2022-12-07T07:26:53;6.95;;;4.20;;
13832;SDS011;6987;19.472;-99.276;2022-12-07T07:29:22;7.45;;;4.45;;
13832;SDS011;6987;19.472;-99.276;2022-12-07T07:31:51;4.60;;;4.20;;
13832;SDS011;6987;19.472;-99.276;2022-12-07T07:34:20;4.65;;;4.03;;
13832;SDS011;6987;19.472;-99.276;2022-12-07T07:36:49;5.28;;;4.22;;
13832;SDS011;6987;19.472;-99.276;2022-12-07T07:39:18;4.25;;;3.88;;
13832;SDS011;6987;19.472;-99.276;2022-12-07T07:41:47;4.88;;;3.92;;
13832;SDS011;6987;19.472;-99.276;2022-12-07T07:44:18;4.40;;;3.92;;
13832;SDS011;6987;19.472;-99.276;2022-12-07T07:46:47;3.80;;;3.50;;
13832;SDS011;6987;19.472;-99.276;2022-12-07T07:49:16;5.68;;;3.63;;
13832;SDS011;6987;19.472;-99.276;2022-12-07T07:51:46;4.20;;;3.85;;
13832;SDS011;6987;19.472;-99.276;2022-12-07T07:54:15;3.97;;;3.67;;
13832;SDS011;6987;19.472;-99.276;2022-12-07T07:56:44;4.07;;;3.63;;
13832;SDS011;6987;19.472;-99.276;2022-12-07T07:59:14;4.88;;;3.78;;
13832;SDS011;6987;19.472;-99.276;2022-12-07T08:01:45;3.75;;;3.28;;
13832;SDS011;6987;19.472;-99.276;2022-12-07T08:04:14;7.20;;;3.58;;
13832;SDS011;6987;19.472;-99.276;2022-12-07T08:06:43;4.22;;;3.55;;
13832;SDS011;6987;19.472;-99.276;2022-12-07T08:09:12;4.15;;;3.72;;
13832;SDS011;6987;19.472;-99.276;2022-12-07T08:11:43;4.47;;;4.07;;
13832;SDS011;6987;19.472;-99.276;2022-12-07T08:14:11;4.32;;;3.92;;
13832;SDS011;6987;19.472;-99.276;2022-12-07T08:16:41;8.68;;;3.78;;
13832;SDS011;6987;19.472;-99.276;2022-12-07T08:19:11;4.72;;;4.30;;
13832;SDS011;6987;19.472;-99.276;2022-12-07T08:21:41;7.65;;;4.22;;
13832;SDS011;6987;19.472;-99.276;2022-12-07T08:24:09;4.28;;;3.88;;
13832;SDS011;6987;19.472;-99.276;2022-12-07T08:26:39;4.88;;;4.28;;
13832;SDS011;6987;19.472;-99.276;2022-12-07T08:29:09;7.35;;;3.97;;
13832;SDS011;6987;19.472;-99.276;2022-12-07T08:31:37;6.90;;;4.05;;
13832;SDS011;6987;19.472;-99.276;2022-12-07T08:34:07;5.10;;;3.60;;
13832;SDS011;6987;19.472;-99.276;2022-12-07T08:36:40;6.40;;;4.43;;
13832;SDS011;6987;19.472;-99.276;2022-12-07T08:39:08;5.30;;;4.30;;
13832;SDS011;6987;19.472;-99.276;2022-12-07T08:41:37;4.30;;;3.85;;
13832;SDS011;6987;19.472;-99.276;2022-12-07T08:44:07;7.47;;;4.70;;
13832;SDS011;6987;19.472;-99.276;2022-12-07T08:46:36;9.60;;;4.20;;
13832;SDS011;6987;19.472;-99.276;2022-12-07T08:49:08;8.45;;;4.45;;
13832;SDS011;6987;19.472;-99.276;2022-12-07T08:51:41;5.10;;;4.60;;
13832;SDS011;6987;19.472;-99.276;2022-12-07T08:54:11;4.75;;;4.43;;
13832;SDS011;6987;19.472;-99.276;2022-12-07T08:56:42;6.15;;;4.43;;
13832;SDS011;6987;19.472;-99.276;2022-12-07T08:59:12;6.68;;;4.88;;
13832;SDS011;6987;19.472;-99.276;2022-12-07T09:01:43;5.15;;;4.60;;
13832;SDS011;6987;19.472;-99.276;2022-12-07T09:04:11;4.70;;;4.30;;
13832;SDS011;6987;19.472;-99.276;2022-12-07T09:06:43;5.47;;;4.72;;
13832;SDS011;6987;19.472;-99.276;2022-12-07T09:09:12;4.72;;;4.30;;
13832;SDS011;6987;19.472;-99.276;2022-12-07T09:11:41;7.07;;;4.38;;
13832;SDS011;6987;19.472;-99.276;2022-12-07T09:14:11;8.02;;;4.57;;
13832;SDS011;6987;19.472;-99.276;2022-12-07T09:16:41;4.85;;;4.10;;
13832;SDS011;6987;19.472;-99.276;2022-12-07T09:19:10;4.70;;;4.20;;
13832;SDS011;6987;19.472;-99.276;2022-12-07T09:21:39;4.50;;;4.20;;
13832;SDS011;6987;19.472;-99.276;2022-12-07T09:24:11;5.00;;;3.90;;
13832;SDS011;6987;19.472;-99.276;2022-12-07T09:26:39;4.78;;;4.32;;
13832;SDS011;6987;19.472;-99.276;2022-12-07T09:29:08;4.95;;;4.35;;
13832;SDS011;6987;19.472;-99.276;2022-12-07T09:31:37;4.32;;;4.00;;
13832;SDS011;6987;19.472;-99.276;2022-12-07T09:34:06;9.38;;;4.55;;
13832;SDS011;6987;19.472;-99.276;2022-12-07T09:36:35;4.53;;;4.20;;
13832;SDS011;6987;19.472;-99.276;2022-12-07T09:39:04;4.57;;;4.13;;
13832;SDS011;6987;19.472;-99.276;2022-12-07T09:41:36;4.30;;;4.00;;
13832;SDS011;6987;19.472;-99.276;2022-12-07T09:44:09;4.70;;;4.28;;
13832;SDS011;6987;19.472;-99.276;2022-12-07T09:46:39;5.43;;;4.35;;
13832;SDS011;6987;19.472;-99.276;2022-12-07T09:49:09;5.22;;;4.72;;
13832;SDS011;6987;19.472;-99.276;2022-12-07T09:51:39;8.40;;;4.85;;
13832;SDS011;6987;19.472;-99.276;2022-12-07T09:54:09;6.13;;;4.85;;
13832;SDS011;6987;19.472;-99.276;2022-12-07T09:56:43;5.40;;;4.32;;
13832;SDS011;6987;19.472;-99.276;2022-12-07T09:59:13;5.82;;;4.78;;
13832;SDS011;6987;19.472;-99.276;2022-12-07T10:01:44;5.40;;;4.90;;
13832;SDS011;6987;19.472;-99.276;2022-12-07T10:04:14;5.47;;;4.80;;
13832;SDS011;6987;19.472;-99.276;2022-12-07T10:06:44;7.57;;;5.22;;
13832;SDS011;6987;19.472;-99.276;2022-12-07T10:09:14;7.50;;;5.22;;
13832;SDS011;6987;19.472;-99.276;2022-12-07T10:12:05;5.78;;;5.22;;
13832;SDS011;6987;19.472;-99.276;2022-12-07T10:14:35;6.28;;;5.13;;
13832;SDS011;6987;19.472;-99.276;2022-12-07T10:17:17;8.50;;;5.38;;
13832;SDS011;6987;19.472;-99.276;2022-12-07T10:20:05;6.13;;;5.18;;
13832;SDS011;6987;19.472;-99.276;2022-12-07T10:22:36;7.88;;;5.38;;
13832;SDS011;6987;19.472;-99.276;2022-12-07T10:25:08;6.50;;;5.57;;
13832;SDS011;6987;19.472;-99.276;2022-12-07T10:27:39;7.93;;;5.60;;
13832;SDS011;6987;19.472;-99.276;2022-12-07T10:30:12;6.03;;;5.28;;
13832;SDS011;6987;19.472;-99.276;2022-12-07T10:32:43;9.57;;;6.10;;
13832;SDS011;6987;19.472;-99.276;2022-12-07T10:35:22;8.40;;;5.88;;
13832;SDS011;6987;19.472;-99.276;2022-12-07T10:37:51;8.07;;;5.25;;
13832;SDS011;6987;19.472;-99.276;2022-12-07T10:43:02;11.63;;;5.80;;
13832;SDS011;6987;19.472;-99.276;2022-12-07T10:45:32;5.97;;;5.40;;
13832;SDS011;6987;19.472;-99.276;2022-12-07T10:48:02;6.20;;;5.60;;
13832;SDS011;6987;19.472;-99.276;2022-12-07T10:50:41;5.75;;;5.15;;
13832;SDS011;6987;19.472;-99.276;2022-12-07T10:53:18;6.90;;;5.35;;
13832;SDS011;6987;19.472;-99.276;2022-12-07T10:55:56;5.93;;;5.43;;
13832;SDS011;6987;19.472;-99.276;2022-12-07T10:58:40;16.92;;;5.93;;
13832;SDS011;6987;19.472;-99.276;2022-12-07T11:01:13;8.30;;;5.97;;
13832;SDS011;6987;19.472;-99.276;2022-12-07T11:03:46;10.93;;;5.55;;
13832;SDS011;6987;19.472;-99.276;2022-12-07T11:06:23;13.25;;;6.22;;
13832;SDS011;6987;19.472;-99.276;2022-12-07T11:08:58;9.98;;;6.28;;
13832;SDS011;6987;19.472;-99.276;2022-12-07T11:11:30;10.73;;;6.15;;
13832;SDS011;6987;19.472;-99.276;2022-12-07T11:14:06;12.90;;;5.68;;
13832;SDS011;6987;19.472;-99.276;2022-12-07T11:16:47;10.45;;;5.95;;
13832;SDS011;6987;19.472;-99.276;2022-12-07T11:19:22;14.43;;;6.13;;
13832;SDS011;6987;19.472;-99.276;2022-12-07T11:21:53;20.58;;;6.40;;
13832;SDS011;6987;19.472;-99.276;2022-12-07T11:24:25;6.22;;;5.45;;
13832;SDS011;6987;19.472;-99.276;2022-12-07T11:27:06;7.63;;;4.97;;
13832;SDS011;6987;19.472;-99.276;2022-12-07T11:29:57;9.48;;;5.57;;
13832;SDS011;6987;19.472;-99.276;2022-12-07T11:32:34;8.18;;;5.32;;
13832;SDS011;6987;19.472;-99.276;2022-12-07T11:35:08;8.70;;;6.07;;
13832;SDS011;6987;19.472;-99.276;2022-12-07T11:37:39;9.18;;;5.75;;
13832;SDS011;6987;19.472;-99.276;2022-12-07T11:40:13;9.75;;;6.43;;
13832;SDS011;6987;19.472;-99.276;2022-12-07T11:42:45;6.72;;;5.05;;
13832;SDS011;6987;19.472;-99.276;2022-12-07T11:45:17;10.88;;;5.93;;
13832;SDS011;6987;19.472;-99.276;2022-12-07T11:47:55;8.15;;;5.45;;
13832;SDS011;6987;19.472;-99.276;2022-12-07T11:50:27;8.23;;;5.88;;
13832;SDS011;6987;19.472;-99.276;2022-12-07T11:53:00;6.57;;;5.65;;
13832;SDS011;6987;19.472;-99.276;2022-12-07T11:55:30;8.30;;;5.60;;
13832;SDS011;6987;19.472;-99.276;2022-12-07T11:58:03;8.55;;;5.93;;
13832;SDS011;6987;19.472;-99.276;2022-12-07T12:00:34;12.40;;;6.28;;
13832;SDS011;6987;19.472;-99.276;2022-12-07T12:03:04;11.73;;;6.68;;
13832;SDS011;6987;19.472;-99.276;2022-12-07T12:05:34;13.05;;;6.95;;
13832;SDS011;6987;19.472;-99.276;2022-12-07T12:08:04;10.60;;;6.93;;
13832;SDS011;6987;19.472;-99.276;2022-12-07T12:10:37;10.20;;;5.95;;
13832;SDS011;6987;19.472;-99.276;2022-12-07T12:13:19;8.57;;;6.65;;
13832;SDS011;6987;19.472;-99.276;2022-12-07T12:15:56;7.32;;;6.45;;
13832;SDS011;6987;19.472;-99.276;2022-12-07T12:18:31;8.85;;;6.22;;
13832;SDS011;6987;19.472;-99.276;2022-12-07T12:21:06;11.27;;;6.07;;
13832;SDS011;6987;19.472;-99.276;2022-12-07T12:23:39;8.13;;;5.97;;
13832;SDS011;6987;19.472;-99.276;2022-12-07T12:26:13;7.50;;;6.28;;
13832;SDS011;6987;19.472;-99.276;2022-12-07T12:28:49;6.60;;;5.75;;
13832;SDS011;6987;19.472;-99.276;2022-12-07T12:31:31;8.55;;;6.30;;
13832;SDS011;6987;19.472;-99.276;2022-12-07T12:34:02;8.10;;;5.93;;
13832;SDS011;6987;19.472;-99.276;2022-12-07T12:36:45;6.65;;;5.40;;
13832;SDS011;6987;19.472;-99.276;2022-12-07T12:39:14;6.80;;;6.05;;
13832;SDS011;6987;19.472;-99.276;2022-12-07T12:42:00;10.25;;;6.40;;
13832;SDS011;6987;19.472;-99.276;2022-12-07T12:47:42;7.85;;;5.28;;
13832;SDS011;6987;19.472;-99.276;2022-12-07T12:50:15;7.47;;;6.50;;
13832;SDS011;6987;19.472;-99.276;2022-12-07T12:52:55;8.25;;;6.22;;
13832;SDS011;6987;19.472;-99.276;2022-12-07T12:58:27;13.18;;;7.07;;
13832;SDS011;6987;19.472;-99.276;2022-12-07T13:03:53;11.85;;;7.38;;
13832;SDS011;6987;19.472;-99.276;2022-12-07T13:06:31;11.55;;;6.85;;
13832;SDS011;6987;19.472;-99.276;2022-12-07T13:09:01;8.48;;;6.53;;
13832;SDS011;6987;19.472;-99.276;2022-12-07T13:11:31;11.27;;;6.43;;
13832;SDS011;6987;19.472;-99.276;2022-12-07T13:16:48;11.73;;;7.57;;
13832;SDS011;6987;19.472;-99.276;2022-12-07T13:25:09;17.20;;;6.75;;
13832;SDS011;6987;19.472;-99.276;2022-12-07T13:27:40;13.13;;;7.18;;
13832;SDS011;6987;19.472;-99.276;2022-12-07T13:30:13;13.77;;;7.03;;
13832;SDS011;6987;19.472;-99.276;2022-12-07T13:32:43;12.63;;;6.90;;
13832;SDS011;6987;19.472;-99.276;2022-12-07T13:35:27;12.07;;;6.85;;
13832;SDS011;6987;19.472;-99.276;2022-12-07T13:37:56;18.27;;;7.13;;
13832;SDS011;6987;19.472;-99.276;2022-12-07T13:40:27;12.32;;;6.70;;
13832;SDS011;6987;19.472;-99.276;2022-12-07T13:43:00;10.20;;;6.40;;
13832;SDS011;6987;19.472;-99.276;2022-12-07T13:45:29;16.80;;;7.22;;
13832;SDS011;6987;19.472;-99.276;2022-12-07T13:48:19;11.43;;;6.70;;
13832;SDS011;6987;19.472;-99.276;2022-12-07T13:50:53;13.70;;;6.85;;
13832;SDS011;6987;19.472;-99.276;2022-12-07T13:53:23;15.98;;;6.72;;
13832;SDS011;6987;19.472;-99.276;2022-12-07T13:55:55;7.53;;;6.53;;
13832;SDS011;6987;19.472;-99.276;2022-12-07T13:58:25;11.07;;;6.32;;
13832;SDS011;6987;19.472;-99.276;2022-12-07T14:00:54;11.50;;;6.47;;
13832;SDS011;6987;19.472;-99.276;2022-12-07T14:03:26;14.35;;;6.20;;
13832;SDS011;6987;19.472;-99.276;2022-12-07T14:06:13;15.77;;;7.28;;
13832;SDS011;6987;19.472;-99.276;2022-12-07T14:08:43;8.75;;;6.47;;
13832;SDS011;6987;19.472;-99.276;2022-12-07T14:11:15;15.82;;;6.38;;
13832;SDS011;6987;19.472;-99.276;2022-12-07T14:13:51;11.40;;;5.97;;
13832;SDS011;6987;19.472;-99.276;2022-12-07T14:16:24;14.57;;;6.90;;
13832;SDS011;6987;19.472;-99.276;2022-12-07T14:18:55;14.15;;;7.38;;
13832;SDS011;6987;19.472;-99.276;2022-12-07T14:21:24;9.57;;;5.93;;
13832;SDS011;6987;19.472;-99.276;2022-12-07T14:24:10;10.73;;;6.07;;
13832;SDS011;6987;19.472;-99.276;2022-12-07T14:26:42;16.95;;;6.90;;
13832;SDS011;6987;19.472;-99.276;2022-12-07T14:29:31;13.63;;;6.63;;
13832;SDS011;6987;19.472;-99.276;2022-12-07T14:34:52;18.30;;;6.22;;
13832;SDS011;6987;19.472;-99.276;2022-12-07T14:37:22;9.75;;;6.75;;
13832;SDS011;6987;19.472;-99.276;2022-12-07T14:39:51;12.25;;;6.82;;
13832;SDS011;6987;19.472;-99.276;2022-12-07T14:42:22;14.52;;;5.72;;
13832;SDS011;6987;19.472;-99.276;2022-12-07T14:44:52;9.45;;;6.28;;
13832;SDS011;6987;19.472;-99.276;2022-12-07T14:47:21;11.98;;;6.70;;
13832;SDS011;6987;19.472;-99.276;2022-12-07T14:49:50;11.45;;;6.93;;
13832;SDS011;6987;19.472;-99.276;2022-12-07T14:52:21;21.13;;;8.55;;
13832;SDS011;6987;19.472;-99.276;2022-12-07T14:54:51;17.73;;;7.95;;
13832;SDS011;6987;19.472;-99.276;2022-12-07T14:57:22;13.98;;;8.00;;
13832;SDS011;6987;19.472;-99.276;2022-12-07T14:59:51;12.68;;;6.78;;
13832;SDS011;6987;19.472;-99.276;2022-12-07T15:02:20;12.70;;;7.38;;
13832;SDS011;6987;19.472;-99.276;2022-12-07T15:04:49;18.90;;;7.50;;
13832;SDS011;6987;19.472;-99.276;2022-12-07T15:07:19;19.55;;;7.35;;
13832;SDS011;6987;19.472;-99.276;2022-12-07T15:09:48;8.02;;;7.22;;
13832;SDS011;6987;19.472;-99.276;2022-12-07T15:12:17;9.00;;;6.65;;
13832;SDS011;6987;19.472;-99.276;2022-12-07T15:14:47;7.00;;;6.40;;
13832;SDS011;6987;19.472;-99.276;2022-12-07T15:17:16;7.80;;;7.00;;
13832;SDS011;6987;19.472;-99.276;2022-12-07T15:19:45;7.88;;;6.88;;